createdAt,value
2023-01-23T00:01:40.437Z,-3.10
2023-01-23T00:04:08.887Z,-3.10
2023-01-23T00:06:39.576Z,-3.20
2023-01-23T00:09:08.131Z,-3.10
2023-01-23T00:11:35.963Z,-3.20
2023-01-23T00:14:03.993Z,-3.10
2023-01-23T00:16:33.167Z,-3.10
2023-01-23T00:19:03.215Z,-3.10
2023-01-23T00:21:31.548Z,-3.10
2023-01-23T00:24:02.338Z,-3.10
2023-01-23T00:26:32.995Z,-3.10
2023-01-23T00:29:01.360Z,-3.10
2023-01-23T00:31:33.325Z,-3.00
2023-01-23T00:34:03.936Z,-3.00
2023-01-23T00:36:35.023Z,-2.90
2023-01-23T00:39:04.514Z,-2.90
2023-01-23T00:41:32.829Z,-3.00
2023-01-23T00:44:00.615Z,-3.00
2023-01-23T00:46:28.419Z,-3.00
2023-01-23T00:48:57.668Z,-3.00
2023-01-23T00:51:26.694Z,-3.00
2023-01-23T00:53:55.148Z,-3.00
2023-01-23T00:56:23.296Z,-3.00
2023-01-23T00:58:51.357Z,-3.10
2023-01-23T01:01:19.860Z,-3.10
2023-01-23T01:03:47.760Z,-3.10
2023-01-23T01:06:17.067Z,-3.00
2023-01-23T01:08:45.169Z,-3.00
2023-01-23T01:11:13.137Z,-3.10
2023-01-23T01:13:41.061Z,-3.10
2023-01-23T01:16:12.186Z,-3.00
2023-01-23T01:18:39.992Z,-3.00
2023-01-23T01:21:10.133Z,-3.00
2023-01-23T01:23:39.034Z,-2.90
2023-01-23T01:26:07.936Z,-3.00
2023-01-23T01:28:38.184Z,-2.90
2023-01-23T01:31:08.422Z,-2.90
2023-01-23T01:33:38.362Z,-3.00
2023-01-23T01:36:15.369Z,-3.00
2023-01-23T01:38:43.408Z,-3.00
2023-01-23T01:41:12.473Z,-3.00
2023-01-23T01:43:41.649Z,-3.00
2023-01-23T01:46:36.658Z,-3.10
2023-01-23T01:49:10.362Z,-3.00
2023-01-23T01:51:45.986Z,-3.00
2023-01-23T01:54:19.589Z,-3.10
2023-01-23T01:56:52.751Z,-3.10
2023-01-23T01:59:23.248Z,-3.20
2023-01-23T02:01:54.800Z,-3.30
2023-01-23T02:04:22.644Z,-3.30
2023-01-23T02:06:52.627Z,-3.30
2023-01-23T02:09:26.833Z,-3.20
2023-01-23T02:11:54.607Z,-3.30
2023-01-23T02:14:25.823Z,-3.30
2023-01-23T02:16:56.282Z,-3.30
2023-01-23T02:19:54.913Z,-3.30
2023-01-23T02:22:53.499Z,-3.20
2023-01-23T02:25:45.460Z,-3.20
2023-01-23T02:28:17.438Z,-3.30
2023-01-23T02:30:51.051Z,-3.40
2023-01-23T02:33:24.733Z,-3.40
2023-01-23T02:35:53.669Z,-3.40
2023-01-23T02:38:26.493Z,-3.40
2023-01-23T02:40:59.136Z,-3.40
2023-01-23T02:43:35.268Z,-3.40
2023-01-23T02:46:12.365Z,-3.20
2023-01-23T02:48:43.963Z,-3.10
2023-01-23T02:51:11.737Z,-3.10
2023-01-23T02:53:40.022Z,-3.10
2023-01-23T02:56:08.367Z,-3.20
2023-01-23T02:58:54.564Z,-3.20
2023-01-23T03:01:22.896Z,-3.20
2023-01-23T03:03:51.797Z,-3.20
2023-01-23T03:06:21.147Z,-3.30
2023-01-23T03:08:51.334Z,-3.30
2023-01-23T03:11:19.663Z,-3.30
2023-01-23T03:13:48.267Z,-3.30
2023-01-23T03:16:16.261Z,-3.20
2023-01-23T03:18:53.901Z,-3.20
2023-01-23T03:21:22.530Z,-3.20
2023-01-23T03:23:53.355Z,-3.20
2023-01-23T03:26:21.142Z,-3.10
2023-01-23T03:29:08.128Z,-3.20
2023-01-23T03:31:36.539Z,-3.20
2023-01-23T03:34:04.742Z,-3.20
2023-01-23T03:36:37.457Z,-3.20
2023-01-23T03:39:26.051Z,-3.20
2023-01-23T03:41:54.922Z,-3.20
2023-01-23T03:44:24.469Z,-3.20
2023-01-23T03:46:53.193Z,-3.20
2023-01-23T03:49:21.083Z,-3.20
2023-01-23T03:51:55.422Z,-3.20
2023-01-23T03:54:23.484Z,-3.20
2023-01-23T03:56:52.282Z,-3.20
2023-01-23T04:00:00.403Z,-3.20
2023-01-23T04:02:41.643Z,-3.20
2023-01-23T04:05:12.531Z,-3.20
2023-01-23T04:07:40.509Z,-3.20
2023-01-23T04:10:12.710Z,-3.20
2023-01-23T04:12:43.566Z,-3.20
2023-01-23T04:15:12.070Z,-3.20
2023-01-23T04:17:42.182Z,-3.20
2023-01-23T04:20:11.863Z,-3.20
2023-01-23T04:22:41.957Z,-3.10
2023-01-23T04:25:10.465Z,-3.20
2023-01-23T04:27:38.327Z,-3.20
2023-01-23T04:30:07.921Z,-3.10
2023-01-23T04:32:36.233Z,-3.20
2023-01-23T04:35:04.628Z,-3.10
2023-01-23T04:37:32.995Z,-3.10
2023-01-23T04:40:00.669Z,-3.20
2023-01-23T04:42:37.245Z,-3.20
2023-01-23T04:45:14.598Z,-3.10
2023-01-23T04:48:01.091Z,-3.10
2023-01-23T04:50:32.233Z,-3.10
2023-01-23T04:53:07.283Z,-3.10
2023-01-23T04:55:37.675Z,-3.20
2023-01-23T04:58:13.095Z,-3.20
2023-01-23T05:00:41.056Z,-3.20
2023-01-23T05:03:08.909Z,-3.20
2023-01-23T05:05:42.809Z,-3.10
2023-01-23T05:08:12.372Z,-3.20
2023-01-23T05:10:41.745Z,-3.10
2023-01-23T05:13:13.285Z,-3.10
2023-01-23T05:15:41.360Z,-3.10
2023-01-23T05:18:09.124Z,-3.10
2023-01-23T05:20:37.231Z,-3.20
2023-01-23T05:23:05.837Z,-3.20
2023-01-23T05:25:41.406Z,-3.20
2023-01-23T05:28:11.540Z,-3.20
2023-01-23T05:30:44.372Z,-3.20
2023-01-23T05:33:20.186Z,-3.10
2023-01-23T05:35:48.762Z,-3.10
2023-01-23T05:38:16.465Z,-3.10
2023-01-23T05:40:44.527Z,-3.10
2023-01-23T05:43:15.912Z,-3.10
2023-01-23T05:46:22.079Z,-3.10
2023-01-23T05:48:53.168Z,-3.10
2023-01-23T05:51:23.494Z,-3.10
2023-01-23T05:53:54.637Z,-3.00
2023-01-23T05:56:23.152Z,-3.00
2023-01-23T05:59:13.663Z,-3.00
2023-01-23T06:01:49.971Z,-2.90
2023-01-23T06:04:37.928Z,-2.90
2023-01-23T06:07:30.260Z,-2.90
2023-01-23T06:09:59.009Z,-3.00
2023-01-23T06:12:26.819Z,-2.90
2023-01-23T06:14:54.682Z,-2.90
2023-01-23T06:17:25.355Z,-2.80
2023-01-23T06:19:53.636Z,-2.90
2023-01-23T06:22:22.377Z,-2.80
2023-01-23T06:25:02.332Z,-2.80
2023-01-23T06:27:30.559Z,-2.70
2023-01-23T06:29:59.169Z,-2.70
2023-01-23T06:32:27.424Z,-2.80
2023-01-23T06:34:55.230Z,-2.80
2023-01-23T06:37:23.117Z,-2.80
2023-01-23T06:39:50.858Z,-2.80
2023-01-23T06:42:18.599Z,-2.70
2023-01-23T06:44:49.638Z,-2.70
2023-01-23T06:47:17.954Z,-2.70
2023-01-23T06:49:51.217Z,-2.70
2023-01-23T06:52:18.962Z,-2.70
2023-01-23T06:54:48.498Z,-2.80
2023-01-23T06:57:17.195Z,-2.70
2023-01-23T06:59:47.106Z,-2.70
2023-01-23T07:02:16.480Z,-2.70
2023-01-23T07:04:47.144Z,-2.70
2023-01-23T07:07:14.959Z,-2.60
2023-01-23T07:09:43.166Z,-2.60
2023-01-23T07:12:25.603Z,-2.60
2023-01-23T07:14:53.369Z,-2.70
2023-01-23T07:17:26.974Z,-2.60
2023-01-23T07:19:54.632Z,-2.70
2023-01-23T07:22:23.385Z,-2.70
2023-01-23T07:24:51.052Z,-2.70
2023-01-23T07:27:18.730Z,-2.60
2023-01-23T07:29:48.862Z,-2.60
2023-01-23T07:32:16.570Z,-2.60
2023-01-23T07:34:44.274Z,-2.60
2023-01-23T07:37:11.884Z,-2.50
2023-01-23T07:39:39.542Z,-2.50
2023-01-23T07:42:07.264Z,-2.50
2023-01-23T07:44:34.976Z,-2.40
2023-01-23T07:47:02.761Z,-2.40
2023-01-23T07:49:33.408Z,-2.40
2023-01-23T07:52:01.145Z,-2.50
2023-01-23T07:54:28.799Z,-2.40
2023-01-23T07:56:56.501Z,-2.40
2023-01-23T07:59:24.208Z,-2.40
2023-01-23T08:01:52.787Z,-2.40
2023-01-23T08:04:21.130Z,-2.40
2023-01-23T08:06:48.780Z,-2.40
2023-01-23T08:09:16.511Z,-2.40
2023-01-23T08:11:44.305Z,-2.30
2023-01-23T08:14:12.087Z,-2.30
2023-01-23T08:16:40.021Z,-2.20
2023-01-23T08:19:08.527Z,-2.20
2023-01-23T08:21:36.347Z,-2.20
2023-01-23T08:24:05.460Z,-2.10
2023-01-23T08:26:33.591Z,-2.10
2023-01-23T08:29:01.260Z,-2.00
2023-01-23T08:31:28.972Z,-2.00
2023-01-23T08:33:57.105Z,-2.10
2023-01-23T08:36:24.838Z,-2.10
2023-01-23T08:38:52.765Z,-2.10
2023-01-23T08:41:20.456Z,-2.10
2023-01-23T08:43:48.359Z,-2.10
2023-01-23T08:46:16.650Z,-2.10
2023-01-23T08:48:47.245Z,-2.00
2023-01-23T08:51:15.582Z,-2.10
2023-01-23T08:53:44.480Z,-2.00
2023-01-23T08:56:17.905Z,-1.90
2023-01-23T08:58:46.143Z,-2.00
2023-01-23T09:01:15.727Z,-1.90
2023-01-23T09:03:43.610Z,-1.80
2023-01-23T09:06:16.505Z,-1.80
2023-01-23T09:08:44.291Z,-1.80
2023-01-23T09:11:12.899Z,-1.80
2023-01-23T09:13:40.872Z,-1.80
2023-01-23T09:16:09.591Z,-1.80
2023-01-23T09:18:38.141Z,-1.90
2023-01-23T09:21:08.816Z,-1.80
2023-01-23T09:23:36.761Z,-1.90
2023-01-23T09:26:10.603Z,-1.80
2023-01-23T09:28:41.931Z,-1.80
2023-01-23T09:31:12.586Z,-1.70
2023-01-23T09:33:41.056Z,-1.70
2023-01-23T09:36:09.664Z,-1.80
2023-01-23T09:38:37.626Z,-1.80
2023-01-23T09:41:19.956Z,-1.80
2023-01-23T09:44:00.747Z,-1.80
2023-01-23T09:46:47.274Z,-1.80
2023-01-23T09:49:42.999Z,-1.80
2023-01-23T09:52:27.967Z,-1.70
2023-01-23T09:55:04.283Z,-1.60
2023-01-23T09:57:36.760Z,-1.60
2023-01-23T10:00:14.159Z,-1.70
2023-01-23T10:02:44.454Z,-1.60
2023-01-23T10:05:17.836Z,-1.60
2023-01-23T10:08:13.745Z,-1.60
2023-01-23T10:10:59.687Z,-1.50
2023-01-23T10:13:36.597Z,-1.50
2023-01-23T10:16:49.183Z,-1.40
2023-01-23T10:19:24.019Z,-1.40
2023-01-23T10:22:00.517Z,-1.30
2023-01-23T10:24:40.172Z,-1.40
2023-01-23T10:27:21.628Z,-1.10
2023-01-23T10:29:57.815Z,-0.90
2023-01-23T10:32:27.085Z,-0.90
2023-01-23T10:35:03.189Z,-1.10
2023-01-23T10:37:50.578Z,-1.10
2023-01-23T10:40:39.268Z,-1.10
2023-01-23T10:43:15.929Z,-1.00
2023-01-23T10:45:45.179Z,-1.00
2023-01-23T10:48:51.184Z,-1.00
2023-01-23T10:51:40.213Z,-1.10
2023-01-23T10:54:45.156Z,-1.10
2023-01-23T10:57:24.088Z,-1.10
2023-01-23T10:59:57.417Z,-1.20
2023-01-23T11:02:30.809Z,-1.20
2023-01-23T11:04:59.668Z,-1.10
2023-01-23T11:07:29.978Z,-1.10
2023-01-23T11:10:09.650Z,-1.10
2023-01-23T11:12:51.614Z,-1.00
2023-01-23T11:15:27.972Z,-1.00
2023-01-23T11:17:58.444Z,-0.90
2023-01-23T11:20:30.540Z,-0.90
2023-01-23T11:23:17.831Z,-0.80
2023-01-23T11:25:55.472Z,-0.70
2023-01-23T11:28:35.589Z,-0.80
2023-01-23T11:31:15.406Z,-0.70
2023-01-23T11:34:17.319Z,-0.60
2023-01-23T11:37:04.615Z,-0.70
2023-01-23T11:39:53.822Z,-0.70
2023-01-23T11:42:21.675Z,-0.70
2023-01-23T11:44:51.275Z,-0.70
2023-01-23T11:47:55.291Z,-0.70
2023-01-23T11:50:43.654Z,-0.70
2023-01-23T11:53:41.501Z,-0.70
2023-01-23T11:56:44.034Z,-0.80
2023-01-23T11:59:47.936Z,-0.70
2023-01-23T12:02:38.382Z,-0.70
2023-01-23T12:05:12.903Z,-0.60
2023-01-23T12:08:09.624Z,-0.60
2023-01-23T12:11:10.771Z,-0.50
2023-01-23T12:13:50.595Z,-0.50
2023-01-23T12:16:18.389Z,-0.40
2023-01-23T12:19:30.441Z,-0.40
2023-01-23T12:22:10.277Z,-0.40
2023-01-23T12:25:01.226Z,-0.40
2023-01-23T12:27:47.134Z,-0.40
2023-01-23T12:30:39.033Z,-0.40
2023-01-23T12:33:28.481Z,-0.40
2023-01-23T12:36:14.868Z,-0.50
2023-01-23T12:38:47.316Z,-0.50
2023-01-23T12:41:36.790Z,-0.40
2023-01-23T12:44:28.068Z,-0.40
2023-01-23T12:47:04.428Z,-0.30
2023-01-23T12:49:40.926Z,-0.40
2023-01-23T12:52:33.519Z,-0.30
2023-01-23T12:55:08.131Z,-0.20
2023-01-23T12:57:59.455Z,-0.30
2023-01-23T13:00:48.834Z,-0.30
2023-01-23T13:03:46.453Z,-0.20
2023-01-23T13:06:41.534Z,-0.20
2023-01-23T13:09:54.677Z,-0.10
2023-01-23T13:12:27.484Z,-0.20
2023-01-23T13:15:22.682Z,-0.30
2023-01-23T13:18:02.549Z,-0.20
2023-01-23T13:20:51.700Z,-0.20
2023-01-23T13:23:26.894Z,-0.10
2023-01-23T13:26:25.239Z,-0.10
2023-01-23T13:29:04.034Z,0.00
2023-01-23T13:31:47.325Z,-0.10
2023-01-23T13:34:18.297Z,-0.10
2023-01-23T13:36:50.680Z,-0.10
2023-01-23T13:39:18.355Z,0.00
2023-01-23T13:41:51.192Z,0.00
2023-01-23T13:44:35.725Z,0.00
2023-01-23T14:22:48.457Z,0.00
2023-01-23T14:25:18.965Z,0.20
2023-01-23T14:27:53.689Z,0.20
2023-01-23T14:30:26.682Z,0.20
2023-01-23T14:32:55.196Z,0.30
2023-01-23T14:35:28.765Z,0.20
2023-01-23T14:38:02.885Z,0.20
2023-01-23T14:40:43.150Z,0.20
2023-01-23T14:43:28.411Z,0.20
2023-01-23T14:46:16.952Z,0.20
2023-01-23T14:48:50.135Z,0.20
2023-01-23T14:51:29.691Z,0.20
2023-01-23T14:54:00.110Z,0.30
2023-01-23T14:56:39.651Z,0.20
2023-01-23T14:59:17.327Z,0.10
2023-01-23T15:02:10.219Z,0.20
2023-01-23T15:04:44.659Z,0.10
2023-01-23T15:07:17.628Z,0.20
2023-01-23T15:09:46.576Z,0.20
2023-01-23T15:12:24.793Z,0.10
2023-01-23T15:14:58.429Z,0.10
2023-01-23T15:17:26.191Z,0.10
2023-01-23T15:19:59.519Z,0.00
2023-01-23T15:22:29.401Z,0.10
2023-01-23T15:24:57.265Z,0.10
2023-01-23T15:27:34.304Z,0.10
2023-01-23T15:30:45.172Z,0.10
2023-01-23T15:33:28.987Z,0.10
2023-01-23T15:36:25.352Z,0.10
2023-01-23T15:38:54.301Z,0.10
2023-01-23T15:41:35.864Z,0.10
2023-01-23T15:44:03.739Z,0.10
2023-01-23T15:46:31.414Z,0.10
2023-01-23T15:48:59.795Z,0.00
2023-01-23T15:51:27.607Z,0.10
2023-01-23T15:53:55.308Z,0.10
2023-01-23T15:56:32.191Z,0.10
2023-01-23T15:59:02.494Z,0.10
2023-01-23T16:01:30.247Z,0.10
2023-01-23T16:03:57.955Z,0.20
2023-01-23T16:06:26.354Z,0.20
2023-01-23T16:09:00.761Z,0.10
2023-01-23T16:11:34.741Z,0.10
2023-01-23T16:14:02.658Z,0.10
2023-01-23T16:16:30.570Z,0.10
2023-01-23T16:18:58.344Z,0.20
2023-01-23T16:21:29.979Z,0.10
2023-01-23T16:23:58.921Z,0.10
2023-01-23T16:26:28.569Z,0.10
2023-01-23T16:29:08.700Z,0.10
2023-01-23T16:31:41.315Z,0.10
2023-01-23T16:34:09.024Z,0.10
2023-01-23T16:36:36.773Z,0.10
2023-01-23T16:39:05.723Z,0.10
2023-01-23T16:41:33.874Z,0.10
2023-01-23T16:44:01.545Z,0.10
2023-01-23T16:46:34.563Z,0.10
2023-01-23T16:49:02.241Z,0.10
2023-01-23T16:51:32.434Z,0.10
2023-01-23T16:54:11.220Z,0.10
2023-01-23T16:56:47.959Z,0.10
2023-01-23T16:59:20.273Z,0.10
2023-01-23T17:01:50.604Z,0.10
2023-01-23T17:04:21.716Z,0.10
2023-01-23T17:06:49.853Z,0.10
2023-01-23T17:09:18.376Z,0.10
2023-01-23T17:11:53.396Z,0.10
2023-01-23T17:14:25.287Z,0.20
2023-01-23T17:16:54.063Z,0.10
2023-01-23T17:19:32.754Z,0.10
2023-01-23T17:22:02.568Z,0.20
2023-01-23T17:24:30.320Z,0.20
2023-01-23T17:26:58.119Z,0.10
2023-01-23T17:29:26.023Z,0.20
2023-01-23T17:31:53.777Z,0.20
2023-01-23T17:34:26.884Z,0.10
2023-01-23T17:36:56.772Z,0.10
2023-01-23T17:39:24.580Z,0.10
2023-01-23T17:41:52.908Z,0.20
2023-01-23T17:44:22.992Z,0.20
2023-01-23T17:46:54.662Z,0.20
2023-01-23T17:49:29.503Z,0.30
2023-01-23T17:52:00.459Z,0.20
2023-01-23T17:54:29.058Z,0.20
2023-01-23T17:56:56.875Z,0.20
2023-01-23T17:59:27.785Z,0.20
2023-01-23T18:01:57.032Z,0.20
2023-01-23T18:04:24.710Z,0.30
2023-01-23T18:06:52.753Z,0.30
2023-01-23T18:09:21.384Z,0.30
2023-01-23T18:11:52.554Z,0.30
2023-01-23T18:14:49.289Z,0.30
2023-01-23T18:17:54.944Z,0.30
2023-01-23T18:20:23.832Z,0.30
2023-01-23T18:22:51.858Z,0.30
2023-01-23T18:25:21.754Z,0.30
2023-01-23T18:27:53.934Z,0.30
2023-01-23T18:30:50.890Z,0.30
2023-01-23T18:33:26.733Z,0.30
2023-01-23T18:36:03.836Z,0.30
2023-01-23T18:38:56.117Z,0.20
2023-01-23T18:41:28.810Z,0.30
2023-01-23T18:44:02.861Z,0.20
2023-01-23T18:46:30.924Z,0.20
2023-01-23T18:48:59.663Z,0.30
2023-01-23T18:51:50.135Z,0.20
2023-01-23T18:54:49.287Z,0.20
2023-01-23T18:57:24.988Z,0.30
2023-01-23T19:00:02.097Z,0.30
2023-01-23T19:02:43.764Z,0.30
2023-01-23T19:05:18.474Z,0.30
2023-01-23T19:07:46.975Z,0.30
2023-01-23T19:10:20.690Z,0.40
2023-01-23T19:13:20.188Z,0.40
2023-01-23T19:16:04.511Z,0.40
2023-01-23T19:19:10.715Z,0.30
2023-01-23T19:21:43.406Z,0.30
2023-01-23T19:24:11.311Z,0.30
2023-01-23T19:26:41.996Z,0.40
2023-01-23T19:29:21.534Z,0.40
2023-01-23T19:32:07.217Z,0.30
2023-01-23T19:34:43.189Z,0.40
2023-01-23T19:37:11.378Z,0.30
2023-01-23T19:39:39.391Z,0.30
2023-01-23T19:42:14.720Z,0.40
2023-01-23T19:44:45.085Z,0.40
2023-01-23T19:47:13.134Z,0.40
2023-01-23T19:49:41.462Z,0.40
2023-01-23T19:52:14.524Z,0.40
2023-01-23T19:54:42.469Z,0.50
2023-01-23T19:57:15.822Z,0.50
2023-01-23T19:59:43.660Z,0.50
2023-01-23T20:02:18.851Z,0.50
2023-01-23T20:04:49.925Z,0.50
2023-01-23T20:07:29.149Z,0.50
2023-01-23T20:09:59.971Z,0.40
2023-01-23T20:12:27.632Z,0.40
2023-01-23T20:14:58.303Z,0.50
2023-01-23T20:17:27.819Z,0.40
2023-01-23T20:19:55.547Z,0.50
2023-01-23T20:22:23.563Z,0.50
2023-01-23T20:24:53.714Z,0.50
2023-01-23T20:27:21.434Z,0.50
2023-01-23T20:29:52.188Z,0.50
2023-01-23T20:32:19.927Z,0.50
2023-01-23T20:34:47.693Z,0.50
2023-01-23T20:37:17.835Z,0.50
2023-01-23T20:39:45.459Z,0.50
2023-01-23T20:42:13.100Z,0.50
2023-01-23T20:44:42.023Z,0.50
2023-01-23T20:47:09.830Z,0.50
2023-01-23T20:49:37.578Z,0.50
2023-01-23T20:52:24.486Z,0.50
2023-01-23T20:54:52.239Z,0.50
2023-01-23T20:57:20.016Z,0.50
2023-01-23T20:59:52.726Z,0.60
2023-01-23T21:02:23.296Z,0.50
2023-01-23T21:04:53.104Z,0.50
2023-01-23T21:07:24.189Z,0.50
2023-01-23T21:09:51.858Z,0.50
2023-01-23T21:12:21.341Z,0.60
2023-01-23T21:14:49.078Z,0.60
2023-01-23T21:17:16.862Z,0.50
2023-01-23T21:19:45.055Z,0.50
2023-01-23T21:22:12.679Z,0.60
2023-01-23T21:24:40.536Z,0.60
2023-01-23T21:27:08.367Z,0.60
2023-01-23T21:29:37.834Z,0.60
2023-01-23T21:32:05.473Z,0.60
2023-01-23T21:34:33.364Z,0.60
2023-01-23T21:37:01.179Z,0.60
2023-01-23T21:39:28.800Z,0.60
2023-01-23T21:41:57.073Z,0.70
2023-01-23T21:44:24.768Z,0.60
2023-01-23T21:46:52.431Z,0.60
2023-01-23T21:49:20.518Z,0.60
2023-01-23T21:51:48.241Z,0.60
2023-01-23T21:54:15.868Z,0.60
2023-01-23T21:56:43.589Z,0.60
2023-01-23T21:59:14.560Z,0.60
2023-01-23T22:01:42.947Z,0.60
2023-01-23T22:04:13.662Z,0.70
2023-01-23T22:06:43.510Z,0.70
2023-01-23T22:09:15.638Z,0.60
2023-01-23T22:11:44.076Z,0.60
2023-01-23T22:14:11.728Z,0.70
2023-01-23T22:16:48.417Z,0.70
2023-01-23T22:19:20.690Z,0.70
2023-01-23T22:21:49.890Z,0.60
2023-01-23T22:24:17.596Z,0.60
2023-01-23T22:26:45.393Z,0.60
2023-01-23T22:29:14.031Z,0.70
2023-01-23T22:31:42.020Z,0.70
2023-01-23T22:34:10.534Z,0.70
2023-01-23T22:36:38.599Z,0.70
2023-01-23T22:39:06.351Z,0.70
2023-01-23T22:41:36.617Z,0.70
2023-01-23T22:44:04.705Z,0.80
2023-01-23T22:46:32.458Z,0.80
2023-01-23T22:49:00.385Z,0.80
2023-01-23T22:51:28.356Z,0.80
2023-01-23T22:53:57.979Z,0.80
2023-01-23T22:56:26.918Z,0.80
2023-01-23T22:59:01.605Z,0.90
2023-01-23T23:01:29.526Z,0.80
2023-01-23T23:03:58.136Z,0.80
2023-01-23T23:06:26.693Z,0.80
2023-01-23T23:08:54.851Z,0.80
2023-01-23T23:11:25.066Z,0.80
2023-01-23T23:13:53.365Z,0.80
2023-01-23T23:16:24.803Z,0.80
2023-01-23T23:18:54.910Z,0.80
2023-01-23T23:21:25.546Z,0.70
2023-01-23T23:23:57.993Z,0.80
2023-01-23T23:26:27.136Z,0.70
2023-01-23T23:28:55.624Z,0.70
2023-01-23T23:31:26.174Z,0.80
2023-01-23T23:33:54.137Z,0.90
2023-01-23T23:36:22.178Z,0.80
2023-01-23T23:38:49.947Z,0.80
2023-01-23T23:41:18.322Z,0.80
2023-01-23T23:43:45.984Z,0.80
2023-01-23T23:46:14.527Z,0.80
2023-01-23T23:48:43.776Z,0.80
2023-01-23T23:51:14.270Z,0.80
2023-01-23T23:53:41.974Z,0.80
2023-01-23T23:56:11.147Z,0.80
2023-01-23T23:58:38.945Z,0.70
